Aérodrome :
LOGIN :

S'inscrire | Disclaimer

   EN    FR    IT 

 










Légende :    VFR   VFR Marginal   IFR   IFR Intensif   IFR Très Intensif
Visi : 
Plafond : 
>= 8 km
>= 3000ft
5 à 8 km
1000 à 3000 ft
1500m à 5 km
500 à 1000 ft
800 à 1500m
200 à 500 ft
< 800m
< 200 ft
Symboles :   Orages  Brouillard  Fortes neiges  Fortes précipitations  Vent > 20 kt
SIGMETs :   Divers  Orages  Givrage  Turbulence  Onde Orograph.  Cendres Volcan.






- Altitude de l'aérodrome : 26 ft
- Code IATA : GLA


EGPF - Glasgow

DERNIER METAR :
  • 220020Z AUTO 21009KT 9999 OVC033 13/10 Q1011

METARs EXPIRÉS :
  • 212350Z AUTO 21002KT 9999 OVC029 13/10 Q1011
  • 212320Z AUTO 25002KT 9999 OVC029 13/11 Q1011
  • 212250Z AUTO VRB03KT 9999 OVC027 13/11 Q1012
  • 212220Z AUTO 24005KT 9999 OVC031 13/11 Q1012

TAF TAF EGPF
Valide du 22 à 00h jusqu'au 23 à 00h UTC


212300Z 2200/2224 22009KT 9999 SCT030
PROB40
TEMPO 2200/2214 BKN010
PROB30
TEMPO 2207/2211 8000 -RA
TEMPO 2209/2220 22015G25KT
PROB30
TEMPO 2212/2218 23022G35KT
TEMPO 2217/2222 7000 -RA BKN010
PROB30
TEMPO 2218/2221 4000 RADZ +RA
BECMG 2219/2222 28009KT
ATIS : +44 141 887 7449



MET'MAP, la Météo Aéronautique d'un coup d'oeil ! - Copyright ORBIFLY Décembre 2007 - Disclaimer

ORBIFLY MET'MAP TEAM :

Programmation & Développement : Alexandra Zaïnal
Sur une idée originale de : Baudouin d'Aumeries
Assistance à la programmation : Marc-Olivier Méhu
Soutien technique & logistique : Manuel Goepfert

Contact : metmap@orbifly.com




SOURCES & CREDITS :

   NOAA